sensor_id;sensor_type;location;lat;lon;timestamp;P1;durP1;ratioP1;P2;durP2;ratioP2
62435;SDS011;48480;50.252;18.848;2023-12-22T00:02:23;5.20;;;2.00;;
62435;SDS011;48480;50.252;18.848;2023-12-22T00:05:09;6.70;;;2.50;;
62435;SDS011;48480;50.252;18.848;2023-12-22T00:07:53;7.80;;;2.20;;
62435;SDS011;48480;50.252;18.848;2023-12-22T00:10:37;4.20;;;1.80;;
62435;SDS011;48480;50.252;18.848;2023-12-22T00:13:21;4.80;;;2.10;;
62435;SDS011;48480;50.252;18.848;2023-12-22T00:16:06;3.30;;;1.30;;
62435;SDS011;48480;50.252;18.848;2023-12-22T00:18:49;4.20;;;1.80;;
62435;SDS011;48480;50.252;18.848;2023-12-22T00:21:34;4.80;;;1.70;;
62435;SDS011;48480;50.252;18.848;2023-12-22T00:24:17;6.20;;;1.80;;
62435;SDS011;48480;50.252;18.848;2023-12-22T00:27:01;5.50;;;2.50;;
62435;SDS011;48480;50.252;18.848;2023-12-22T00:29:46;8.60;;;2.30;;
62435;SDS011;48480;50.252;18.848;2023-12-22T00:32:31;4.80;;;1.50;;
62435;SDS011;48480;50.252;18.848;2023-12-22T00:35:15;3.60;;;1.20;;
62435;SDS011;48480;50.252;18.848;2023-12-22T00:37:59;6.00;;;1.80;;
62435;SDS011;48480;50.252;18.848;2023-12-22T00:40:43;7.00;;;1.80;;
62435;SDS011;48480;50.252;18.848;2023-12-22T00:43:27;4.90;;;1.50;;
62435;SDS011;48480;50.252;18.848;2023-12-22T00:46:11;7.20;;;1.70;;
62435;SDS011;48480;50.252;18.848;2023-12-22T00:48:56;6.70;;;1.90;;
62435;SDS011;48480;50.252;18.848;2023-12-22T00:51:40;4.90;;;1.70;;
62435;SDS011;48480;50.252;18.848;2023-12-22T00:54:24;4.00;;;1.40;;
62435;SDS011;48480;50.252;18.848;2023-12-22T00:57:08;3.30;;;1.20;;
62435;SDS011;48480;50.252;18.848;2023-12-22T00:59:52;5.40;;;1.30;;
62435;SDS011;48480;50.252;18.848;2023-12-22T01:02:37;3.30;;;1.20;;
62435;SDS011;48480;50.252;18.848;2023-12-22T01:05:21;4.00;;;1.40;;
62435;SDS011;48480;50.252;18.848;2023-12-22T01:08:05;7.40;;;1.70;;
62435;SDS011;48480;50.252;18.848;2023-12-22T01:10:49;4.40;;;1.30;;
62435;SDS011;48480;50.252;18.848;2023-12-22T01:13:33;3.20;;;1.20;;
62435;SDS011;48480;50.252;18.848;2023-12-22T01:16:17;3.60;;;1.40;;
62435;SDS011;48480;50.252;18.848;2023-12-22T01:19:04;4.50;;;1.30;;
62435;SDS011;48480;50.252;18.848;2023-12-22T01:21:48;5.30;;;1.70;;
62435;SDS011;48480;50.252;18.848;2023-12-22T01:24:33;3.00;;;1.10;;
62435;SDS011;48480;50.252;18.848;2023-12-22T01:27:17;5.40;;;1.50;;
62435;SDS011;48480;50.252;18.848;2023-12-22T01:30:02;9.50;;;2.20;;
62435;SDS011;48480;50.252;18.848;2023-12-22T01:32:46;5.90;;;1.70;;
62435;SDS011;48480;50.252;18.848;2023-12-22T01:35:30;4.00;;;1.30;;
62435;SDS011;48480;50.252;18.848;2023-12-22T01:38:14;4.80;;;1.70;;
62435;SDS011;48480;50.252;18.848;2023-12-22T01:40:58;3.40;;;1.30;;
62435;SDS011;48480;50.252;18.848;2023-12-22T01:43:42;5.90;;;1.30;;
62435;SDS011;48480;50.252;18.848;2023-12-22T01:46:26;3.40;;;1.40;;
62435;SDS011;48480;50.252;18.848;2023-12-22T01:49:11;5.70;;;1.10;;
62435;SDS011;48480;50.252;18.848;2023-12-22T01:51:56;3.40;;;1.10;;
62435;SDS011;48480;50.252;18.848;2023-12-22T01:54:40;3.70;;;1.00;;
62435;SDS011;48480;50.252;18.848;2023-12-22T01:57:24;3.90;;;1.50;;
62435;SDS011;48480;50.252;18.848;2023-12-22T02:00:08;4.10;;;1.10;;
62435;SDS011;48480;50.252;18.848;2023-12-22T02:02:53;1.90;;;1.10;;
62435;SDS011;48480;50.252;18.848;2023-12-22T02:05:37;3.60;;;1.20;;
62435;SDS011;48480;50.252;18.848;2023-12-22T02:08:21;2.50;;;0.90;;
62435;SDS011;48480;50.252;18.848;2023-12-22T02:11:08;2.10;;;1.10;;
62435;SDS011;48480;50.252;18.848;2023-12-22T02:13:52;3.30;;;1.30;;
62435;SDS011;48480;50.252;18.848;2023-12-22T02:16:52;4.70;;;1.30;;
62435;SDS011;48480;50.252;18.848;2023-12-22T02:19:59;3.90;;;1.40;;
62435;SDS011;48480;50.252;18.848;2023-12-22T02:22:44;5.10;;;1.30;;
62435;SDS011;48480;50.252;18.848;2023-12-22T02:25:28;1.90;;;0.80;;
62435;SDS011;48480;50.252;18.848;2023-12-22T02:28:13;3.40;;;1.10;;
62435;SDS011;48480;50.252;18.848;2023-12-22T02:33:53;3.80;;;1.30;;
62435;SDS011;48480;50.252;18.848;2023-12-22T02:36:39;5.60;;;1.30;;
62435;SDS011;48480;50.252;18.848;2023-12-22T02:39:26;2.70;;;0.80;;
62435;SDS011;48480;50.252;18.848;2023-12-22T02:42:10;2.30;;;0.80;;
62435;SDS011;48480;50.252;18.848;2023-12-22T02:44:59;2.70;;;1.00;;
62435;SDS011;48480;50.252;18.848;2023-12-22T02:47:43;3.30;;;1.30;;
62435;SDS011;48480;50.252;18.848;2023-12-22T02:50:28;3.80;;;1.30;;
62435;SDS011;48480;50.252;18.848;2023-12-22T02:53:11;2.60;;;1.30;;
62435;SDS011;48480;50.252;18.848;2023-12-22T02:55:55;6.30;;;1.80;;
62435;SDS011;48480;50.252;18.848;2023-12-22T02:58:39;5.00;;;1.50;;
62435;SDS011;48480;50.252;18.848;2023-12-22T03:01:23;4.50;;;1.40;;
62435;SDS011;48480;50.252;18.848;2023-12-22T03:04:07;2.80;;;1.00;;
62435;SDS011;48480;50.252;18.848;2023-12-22T03:06:51;4.90;;;1.30;;
62435;SDS011;48480;50.252;18.848;2023-12-22T03:09:35;4.30;;;1.10;;
62435;SDS011;48480;50.252;18.848;2023-12-22T03:12:19;3.60;;;1.20;;
62435;SDS011;48480;50.252;18.848;2023-12-22T03:15:03;3.30;;;1.20;;
62435;SDS011;48480;50.252;18.848;2023-12-22T03:17:48;3.60;;;1.10;;
62435;SDS011;48480;50.252;18.848;2023-12-22T03:20:32;3.90;;;1.40;;
62435;SDS011;48480;50.252;18.848;2023-12-22T03:23:16;5.90;;;1.70;;
62435;SDS011;48480;50.252;18.848;2023-12-22T03:26:02;5.50;;;1.70;;
62435;SDS011;48480;50.252;18.848;2023-12-22T03:28:47;4.50;;;1.60;;
62435;SDS011;48480;50.252;18.848;2023-12-22T03:31:31;6.90;;;1.80;;
62435;SDS011;48480;50.252;18.848;2023-12-22T03:34:16;5.20;;;1.30;;
62435;SDS011;48480;50.252;18.848;2023-12-22T03:37:00;4.80;;;1.50;;
62435;SDS011;48480;50.252;18.848;2023-12-22T03:39:44;3.20;;;1.20;;
62435;SDS011;48480;50.252;18.848;2023-12-22T03:42:28;4.40;;;1.50;;
62435;SDS011;48480;50.252;18.848;2023-12-22T03:45:12;7.10;;;1.60;;
62435;SDS011;48480;50.252;18.848;2023-12-22T03:47:56;5.00;;;1.60;;
62435;SDS011;48480;50.252;18.848;2023-12-22T03:50:40;5.30;;;1.80;;
62435;SDS011;48480;50.252;18.848;2023-12-22T03:53:24;3.70;;;1.50;;
62435;SDS011;48480;50.252;18.848;2023-12-22T03:56:09;2.50;;;1.10;;
62435;SDS011;48480;50.252;18.848;2023-12-22T03:58:53;4.40;;;1.40;;
62435;SDS011;48480;50.252;18.848;2023-12-22T04:01:37;5.40;;;1.90;;
62435;SDS011;48480;50.252;18.848;2023-12-22T04:04:21;3.20;;;1.10;;
62435;SDS011;48480;50.252;18.848;2023-12-22T04:07:06;5.60;;;1.70;;
62435;SDS011;48480;50.252;18.848;2023-12-22T04:09:50;5.90;;;1.90;;
62435;SDS011;48480;50.252;18.848;2023-12-22T04:12:34;2.80;;;1.20;;
62435;SDS011;48480;50.252;18.848;2023-12-22T04:15:18;7.20;;;1.70;;
62435;SDS011;48480;50.252;18.848;2023-12-22T04:18:02;4.80;;;1.40;;
62435;SDS011;48480;50.252;18.848;2023-12-22T04:20:46;4.90;;;1.70;;
62435;SDS011;48480;50.252;18.848;2023-12-22T04:23:33;7.20;;;1.40;;
62435;SDS011;48480;50.252;18.848;2023-12-22T04:26:17;10.90;;;4.40;;
62435;SDS011;48480;50.252;18.848;2023-12-22T04:29:01;10.90;;;2.60;;
62435;SDS011;48480;50.252;18.848;2023-12-22T04:31:46;7.40;;;2.20;;
62435;SDS011;48480;50.252;18.848;2023-12-22T04:34:30;3.70;;;1.60;;
62435;SDS011;48480;50.252;18.848;2023-12-22T04:37:14;2.10;;;0.90;;
62435;SDS011;48480;50.252;18.848;2023-12-22T04:39:58;6.90;;;2.20;;
62435;SDS011;48480;50.252;18.848;2023-12-22T04:42:42;4.30;;;1.30;;
62435;SDS011;48480;50.252;18.848;2023-12-22T04:45:26;3.40;;;0.90;;
62435;SDS011;48480;50.252;18.848;2023-12-22T04:48:10;3.30;;;0.90;;
62435;SDS011;48480;50.252;18.848;2023-12-22T04:50:54;1.10;;;0.60;;
62435;SDS011;48480;50.252;18.848;2023-12-22T04:53:38;1.20;;;0.60;;
62435;SDS011;48480;50.252;18.848;2023-12-22T04:56:22;2.50;;;1.20;;
62435;SDS011;48480;50.252;18.848;2023-12-22T04:59:06;3.70;;;1.70;;
62435;SDS011;48480;50.252;18.848;2023-12-22T05:01:50;2.90;;;1.10;;
62435;SDS011;48480;50.252;18.848;2023-12-22T05:04:34;1.50;;;0.80;;
62435;SDS011;48480;50.252;18.848;2023-12-22T05:07:17;1.90;;;1.10;;
62435;SDS011;48480;50.252;18.848;2023-12-22T05:10:02;2.50;;;1.00;;
62435;SDS011;48480;50.252;18.848;2023-12-22T05:12:46;3.00;;;0.80;;
62435;SDS011;48480;50.252;18.848;2023-12-22T05:15:31;1.70;;;0.90;;
62435;SDS011;48480;50.252;18.848;2023-12-22T05:18:15;2.30;;;1.00;;
62435;SDS011;48480;50.252;18.848;2023-12-22T05:21:00;1.80;;;1.00;;
62435;SDS011;48480;50.252;18.848;2023-12-22T05:23:44;1.10;;;0.60;;
62435;SDS011;48480;50.252;18.848;2023-12-22T05:26:28;2.80;;;1.10;;
62435;SDS011;48480;50.252;18.848;2023-12-22T05:29:14;0.80;;;0.60;;
62435;SDS011;48480;50.252;18.848;2023-12-22T05:31:58;3.00;;;1.10;;
62435;SDS011;48480;50.252;18.848;2023-12-22T05:34:41;2.30;;;1.00;;
62435;SDS011;48480;50.252;18.848;2023-12-22T05:37:25;2.80;;;1.10;;
62435;SDS011;48480;50.252;18.848;2023-12-22T05:40:10;2.50;;;1.30;;
62435;SDS011;48480;50.252;18.848;2023-12-22T05:42:55;3.90;;;1.40;;
62435;SDS011;48480;50.252;18.848;2023-12-22T05:45:39;2.00;;;0.80;;
62435;SDS011;48480;50.252;18.848;2023-12-22T05:48:23;3.20;;;1.30;;
62435;SDS011;48480;50.252;18.848;2023-12-22T05:51:07;6.00;;;1.40;;
62435;SDS011;48480;50.252;18.848;2023-12-22T05:53:56;3.30;;;1.10;;
62435;SDS011;48480;50.252;18.848;2023-12-22T05:56:40;4.00;;;1.70;;
62435;SDS011;48480;50.252;18.848;2023-12-22T05:59:24;2.30;;;1.20;;
62435;SDS011;48480;50.252;18.848;2023-12-22T06:02:10;5.00;;;2.00;;
62435;SDS011;48480;50.252;18.848;2023-12-22T06:04:54;4.00;;;1.70;;
62435;SDS011;48480;50.252;18.848;2023-12-22T06:07:38;3.40;;;1.40;;
62435;SDS011;48480;50.252;18.848;2023-12-22T06:10:22;4.40;;;1.90;;
62435;SDS011;48480;50.252;18.848;2023-12-22T06:13:06;3.80;;;2.20;;
62435;SDS011;48480;50.252;18.848;2023-12-22T06:15:50;11.60;;;5.90;;
62435;SDS011;48480;50.252;18.848;2023-12-22T06:18:35;10.70;;;5.50;;
62435;SDS011;48480;50.252;18.848;2023-12-22T06:21:19;4.30;;;2.80;;
62435;SDS011;48480;50.252;18.848;2023-12-22T06:24:03;5.60;;;1.70;;
62435;SDS011;48480;50.252;18.848;2023-12-22T06:26:47;4.50;;;1.70;;
62435;SDS011;48480;50.252;18.848;2023-12-22T06:29:31;3.80;;;1.40;;
62435;SDS011;48480;50.252;18.848;2023-12-22T06:32:15;5.90;;;2.20;;
62435;SDS011;48480;50.252;18.848;2023-12-22T06:35:01;4.90;;;1.50;;
62435;SDS011;48480;50.252;18.848;2023-12-22T06:37:46;5.40;;;1.70;;
62435;SDS011;48480;50.252;18.848;2023-12-22T06:40:30;4.60;;;1.80;;
62435;SDS011;48480;50.252;18.848;2023-12-22T06:43:14;7.60;;;2.30;;
62435;SDS011;48480;50.252;18.848;2023-12-22T06:45:58;6.70;;;2.10;;
62435;SDS011;48480;50.252;18.848;2023-12-22T06:48:43;4.00;;;1.40;;
62435;SDS011;48480;50.252;18.848;2023-12-22T06:51:29;4.50;;;1.70;;
62435;SDS011;48480;50.252;18.848;2023-12-22T06:54:14;6.70;;;3.00;;
62435;SDS011;48480;50.252;18.848;2023-12-22T06:56:58;6.90;;;2.60;;
62435;SDS011;48480;50.252;18.848;2023-12-22T06:59:42;7.40;;;2.80;;
62435;SDS011;48480;50.252;18.848;2023-12-22T07:02:27;8.60;;;2.90;;
62435;SDS011;48480;50.252;18.848;2023-12-22T07:08:10;8.90;;;2.20;;
62435;SDS011;48480;50.252;18.848;2023-12-22T07:10:54;5.60;;;2.60;;
62435;SDS011;48480;50.252;18.848;2023-12-22T07:13:38;8.70;;;3.20;;
62435;SDS011;48480;50.252;18.848;2023-12-22T07:16:22;7.60;;;3.60;;
62435;SDS011;48480;50.252;18.848;2023-12-22T07:19:06;9.10;;;3.00;;
62435;SDS011;48480;50.252;18.848;2023-12-22T07:21:50;11.50;;;3.60;;
62435;SDS011;48480;50.252;18.848;2023-12-22T07:24:34;8.30;;;2.90;;
62435;SDS011;48480;50.252;18.848;2023-12-22T07:27:18;9.60;;;3.30;;
62435;SDS011;48480;50.252;18.848;2023-12-22T07:30:02;18.80;;;7.10;;
62435;SDS011;48480;50.252;18.848;2023-12-22T07:32:46;22.00;;;8.70;;
62435;SDS011;48480;50.252;18.848;2023-12-22T07:35:36;13.50;;;5.60;;
62435;SDS011;48480;50.252;18.848;2023-12-22T07:38:20;9.80;;;4.50;;
62435;SDS011;48480;50.252;18.848;2023-12-22T07:41:04;9.40;;;4.10;;
62435;SDS011;48480;50.252;18.848;2023-12-22T07:43:48;9.40;;;4.50;;
62435;SDS011;48480;50.252;18.848;2023-12-22T07:46:32;11.80;;;4.70;;
62435;SDS011;48480;50.252;18.848;2023-12-22T07:49:16;10.80;;;4.50;;
62435;SDS011;48480;50.252;18.848;2023-12-22T07:52:00;11.10;;;5.30;;
62435;SDS011;48480;50.252;18.848;2023-12-22T07:54:44;11.90;;;5.00;;
62435;SDS011;48480;50.252;18.848;2023-12-22T07:57:28;14.10;;;6.00;;
62435;SDS011;48480;50.252;18.848;2023-12-22T08:00:12;12.20;;;5.90;;
62435;SDS011;48480;50.252;18.848;2023-12-22T08:02:56;14.80;;;5.40;;
62435;SDS011;48480;50.252;18.848;2023-12-22T08:05:40;9.00;;;5.30;;
62435;SDS011;48480;50.252;18.848;2023-12-22T08:08:25;17.20;;;6.10;;
62435;SDS011;48480;50.252;18.848;2023-12-22T08:11:08;15.70;;;6.60;;
62435;SDS011;48480;50.252;18.848;2023-12-22T08:13:53;18.30;;;7.80;;
62435;SDS011;48480;50.252;18.848;2023-12-22T08:16:37;13.20;;;6.40;;
62435;SDS011;48480;50.252;18.848;2023-12-22T08:19:21;12.10;;;6.00;;
62435;SDS011;48480;50.252;18.848;2023-12-22T08:22:05;21.00;;;8.30;;
62435;SDS011;48480;50.252;18.848;2023-12-22T08:24:49;30.40;;;13.40;;
62435;SDS011;48480;50.252;18.848;2023-12-22T08:27:33;28.00;;;12.50;;
62435;SDS011;48480;50.252;18.848;2023-12-22T08:30:17;19.50;;;8.00;;
62435;SDS011;48480;50.252;18.848;2023-12-22T08:33:02;13.90;;;5.80;;
62435;SDS011;48480;50.252;18.848;2023-12-22T08:35:46;11.60;;;4.40;;
62435;SDS011;48480;50.252;18.848;2023-12-22T08:38:30;6.20;;;2.40;;
62435;SDS011;48480;50.252;18.848;2023-12-22T08:41:14;5.10;;;2.60;;
62435;SDS011;48480;50.252;18.848;2023-12-22T08:43:58;5.50;;;2.60;;
62435;SDS011;48480;50.252;18.848;2023-12-22T08:46:41;5.60;;;3.30;;
62435;SDS011;48480;50.252;18.848;2023-12-22T08:49:25;7.70;;;3.50;;
62435;SDS011;48480;50.252;18.848;2023-12-22T08:52:09;5.90;;;2.80;;
62435;SDS011;48480;50.252;18.848;2023-12-22T08:54:54;4.20;;;2.00;;
62435;SDS011;48480;50.252;18.848;2023-12-22T08:57:39;7.80;;;2.20;;
62435;SDS011;48480;50.252;18.848;2023-12-22T09:00:23;5.80;;;1.80;;
62435;SDS011;48480;50.252;18.848;2023-12-22T09:03:07;3.50;;;1.70;;
62435;SDS011;48480;50.252;18.848;2023-12-22T09:05:52;5.60;;;2.70;;
62435;SDS011;48480;50.252;18.848;2023-12-22T09:08:36;2.90;;;1.80;;
62435;SDS011;48480;50.252;18.848;2023-12-22T09:11:21;3.60;;;1.60;;
62435;SDS011;48480;50.252;18.848;2023-12-22T09:14:05;3.30;;;1.40;;
62435;SDS011;48480;50.252;18.848;2023-12-22T09:16:53;3.20;;;1.60;;
62435;SDS011;48480;50.252;18.848;2023-12-22T09:19:39;2.80;;;1.50;;
62435;SDS011;48480;50.252;18.848;2023-12-22T09:22:23;6.80;;;3.00;;
62435;SDS011;48480;50.252;18.848;2023-12-22T09:25:08;4.00;;;2.00;;
62435;SDS011;48480;50.252;18.848;2023-12-22T09:27:55;3.00;;;1.40;;
62435;SDS011;48480;50.252;18.848;2023-12-22T09:30:39;3.70;;;2.00;;
62435;SDS011;48480;50.252;18.848;2023-12-22T09:33:23;11.80;;;4.40;;
62435;SDS011;48480;50.252;18.848;2023-12-22T09:36:06;12.20;;;4.20;;
62435;SDS011;48480;50.252;18.848;2023-12-22T09:38:51;17.00;;;5.90;;
62435;SDS011;48480;50.252;18.848;2023-12-22T09:41:35;14.00;;;5.50;;
62435;SDS011;48480;50.252;18.848;2023-12-22T09:44:20;14.50;;;5.60;;
62435;SDS011;48480;50.252;18.848;2023-12-22T09:50:04;5.80;;;3.00;;
62435;SDS011;48480;50.252;18.848;2023-12-22T09:53:00;3.50;;;1.90;;
62435;SDS011;48480;50.252;18.848;2023-12-22T09:55:46;3.60;;;1.80;;
62435;SDS011;48480;50.252;18.848;2023-12-22T09:58:33;9.50;;;3.00;;
62435;SDS011;48480;50.252;18.848;2023-12-22T10:01:19;5.30;;;2.00;;
62435;SDS011;48480;50.252;18.848;2023-12-22T10:04:06;5.30;;;1.70;;
62435;SDS011;48480;50.252;18.848;2023-12-22T10:06:50;6.80;;;2.80;;
62435;SDS011;48480;50.252;18.848;2023-12-22T10:09:36;2.90;;;1.60;;
62435;SDS011;48480;50.252;18.848;2023-12-22T10:12:20;5.40;;;2.30;;
62435;SDS011;48480;50.252;18.848;2023-12-22T10:15:05;10.40;;;3.30;;
62435;SDS011;48480;50.252;18.848;2023-12-22T10:17:53;10.30;;;4.10;;
62435;SDS011;48480;50.252;18.848;2023-12-22T10:20:37;2.50;;;1.40;;
62435;SDS011;48480;50.252;18.848;2023-12-22T10:23:21;7.40;;;3.00;;
62435;SDS011;48480;50.252;18.848;2023-12-22T10:26:05;7.10;;;2.20;;
62435;SDS011;48480;50.252;18.848;2023-12-22T10:28:50;5.80;;;2.60;;
62435;SDS011;48480;50.252;18.848;2023-12-22T10:31:41;10.10;;;3.40;;
62435;SDS011;48480;50.252;18.848;2023-12-22T10:34:25;12.90;;;4.80;;
62435;SDS011;48480;50.252;18.848;2023-12-22T10:37:10;9.90;;;4.80;;
62435;SDS011;48480;50.252;18.848;2023-12-22T10:39:55;3.50;;;2.10;;
62435;SDS011;48480;50.252;18.848;2023-12-22T10:42:42;6.40;;;2.40;;
62435;SDS011;48480;50.252;18.848;2023-12-22T10:45:26;7.00;;;2.50;;
62435;SDS011;48480;50.252;18.848;2023-12-22T10:48:13;2.90;;;1.50;;
62435;SDS011;48480;50.252;18.848;2023-12-22T10:50:57;4.40;;;2.30;;
62435;SDS011;48480;50.252;18.848;2023-12-22T10:53:41;3.40;;;1.80;;
62435;SDS011;48480;50.252;18.848;2023-12-22T10:56:26;6.00;;;2.90;;
62435;SDS011;48480;50.252;18.848;2023-12-22T10:59:12;6.30;;;3.00;;
62435;SDS011;48480;50.252;18.848;2023-12-22T11:01:59;4.80;;;2.30;;
62435;SDS011;48480;50.252;18.848;2023-12-22T11:05:01;2.70;;;1.40;;
62435;SDS011;48480;50.252;18.848;2023-12-22T11:07:49;5.00;;;1.90;;
62435;SDS011;48480;50.252;18.848;2023-12-22T11:10:35;7.10;;;3.50;;
62435;SDS011;48480;50.252;18.848;2023-12-22T11:13:25;6.20;;;2.50;;
62435;SDS011;48480;50.252;18.848;2023-12-22T11:16:09;5.20;;;2.60;;
62435;SDS011;48480;50.252;18.848;2023-12-22T11:18:54;3.30;;;1.70;;
62435;SDS011;48480;50.252;18.848;2023-12-22T11:21:40;6.30;;;1.80;;
62435;SDS011;48480;50.252;18.848;2023-12-22T11:24:25;3.50;;;1.70;;
62435;SDS011;48480;50.252;18.848;2023-12-22T11:27:12;3.40;;;1.90;;
62435;SDS011;48480;50.252;18.848;2023-12-22T11:29:57;1.90;;;1.00;;
62435;SDS011;48480;50.252;18.848;2023-12-22T11:32:43;5.00;;;2.20;;
62435;SDS011;48480;50.252;18.848;2023-12-22T11:35:30;4.90;;;2.60;;
62435;SDS011;48480;50.252;18.848;2023-12-22T11:38:15;5.10;;;2.30;;
62435;SDS011;48480;50.252;18.848;2023-12-22T11:40:59;4.20;;;2.10;;
62435;SDS011;48480;50.252;18.848;2023-12-22T11:43:44;2.70;;;1.40;;
62435;SDS011;48480;50.252;18.848;2023-12-22T11:46:30;3.50;;;1.70;;
62435;SDS011;48480;50.252;18.848;2023-12-22T11:49:15;3.20;;;1.60;;
62435;SDS011;48480;50.252;18.848;2023-12-22T11:51:59;3.60;;;1.60;;
62435;SDS011;48480;50.252;18.848;2023-12-22T11:54:47;4.90;;;1.40;;
62435;SDS011;48480;50.252;18.848;2023-12-22T11:57:36;3.70;;;2.10;;
62435;SDS011;48480;50.252;18.848;2023-12-22T12:03:08;5.00;;;2.90;;
62435;SDS011;48480;50.252;18.848;2023-12-22T12:06:05;6.60;;;2.40;;
62435;SDS011;48480;50.252;18.848;2023-12-22T12:08:54;5.90;;;1.70;;
62435;SDS011;48480;50.252;18.848;2023-12-22T12:14:37;3.50;;;1.60;;
62435;SDS011;48480;50.252;18.848;2023-12-22T12:17:25;2.50;;;1.20;;
62435;SDS011;48480;50.252;18.848;2023-12-22T12:20:09;2.10;;;1.10;;
62435;SDS011;48480;50.252;18.848;2023-12-22T12:22:55;7.60;;;1.90;;
62435;SDS011;48480;50.252;18.848;2023-12-22T12:25:39;4.30;;;1.60;;
62435;SDS011;48480;50.252;18.848;2023-12-22T12:28:25;2.20;;;1.30;;
62435;SDS011;48480;50.252;18.848;2023-12-22T12:31:11;2.70;;;1.10;;
62435;SDS011;48480;50.252;18.848;2023-12-22T12:33:56;2.30;;;1.00;;
62435;SDS011;48480;50.252;18.848;2023-12-22T12:36:40;7.60;;;2.40;;
62435;SDS011;48480;50.252;18.848;2023-12-22T12:39:24;3.90;;;1.90;;
62435;SDS011;48480;50.252;18.848;2023-12-22T12:42:15;3.20;;;2.30;;
62435;SDS011;48480;50.252;18.848;2023-12-22T12:44:59;5.00;;;3.20;;
62435;SDS011;48480;50.252;18.848;2023-12-22T12:47:43;3.90;;;1.80;;
62435;SDS011;48480;50.252;18.848;2023-12-22T12:50:27;4.50;;;2.20;;
62435;SDS011;48480;50.252;18.848;2023-12-22T12:53:18;1.70;;;1.10;;
62435;SDS011;48480;50.252;18.848;2023-12-22T12:56:02;3.30;;;1.50;;
62435;SDS011;48480;50.252;18.848;2023-12-22T12:58:48;4.10;;;2.20;;
62435;SDS011;48480;50.252;18.848;2023-12-22T13:01:32;3.80;;;1.40;;
62435;SDS011;48480;50.252;18.848;2023-12-22T13:04:22;3.70;;;1.40;;
62435;SDS011;48480;50.252;18.848;2023-12-22T13:07:25;5.00;;;1.70;;
62435;SDS011;48480;50.252;18.848;2023-12-22T13:10:19;2.80;;;1.50;;
62435;SDS011;48480;50.252;18.848;2023-12-22T13:13:09;4.70;;;2.00;;
62435;SDS011;48480;50.252;18.848;2023-12-22T13:15:53;3.80;;;1.80;;
62435;SDS011;48480;50.252;18.848;2023-12-22T13:18:38;4.70;;;2.00;;
62435;SDS011;48480;50.252;18.848;2023-12-22T13:21:22;6.40;;;2.40;;
62435;SDS011;48480;50.252;18.848;2023-12-22T13:24:12;5.50;;;1.90;;
62435;SDS011;48480;50.252;18.848;2023-12-22T13:26:58;6.70;;;1.90;;
62435;SDS011;48480;50.252;18.848;2023-12-22T13:29:47;5.60;;;1.90;;
62435;SDS011;48480;50.252;18.848;2023-12-22T13:32:32;5.50;;;1.90;;
62435;SDS011;48480;50.252;18.848;2023-12-22T13:35:17;4.00;;;1.00;;
62435;SDS011;48480;50.252;18.848;2023-12-22T13:38:07;3.40;;;2.30;;
62435;SDS011;48480;50.252;18.848;2023-12-22T13:40:52;4.30;;;1.00;;
62435;SDS011;48480;50.252;18.848;2023-12-22T13:43:36;4.40;;;1.50;;
62435;SDS011;48480;50.252;18.848;2023-12-22T13:46:21;3.80;;;1.70;;
62435;SDS011;48480;50.252;18.848;2023-12-22T13:49:10;3.80;;;1.30;;
62435;SDS011;48480;50.252;18.848;2023-12-22T13:51:55;3.30;;;1.30;;
62435;SDS011;48480;50.252;18.848;2023-12-22T13:54:40;4.60;;;1.70;;
62435;SDS011;48480;50.252;18.848;2023-12-22T13:57:23;3.20;;;1.40;;
62435;SDS011;48480;50.252;18.848;2023-12-22T14:03:04;3.40;;;1.60;;
62435;SDS011;48480;50.252;18.848;2023-12-22T14:05:48;3.50;;;2.00;;
62435;SDS011;48480;50.252;18.848;2023-12-22T14:08:33;4.30;;;2.20;;
62435;SDS011;48480;50.252;18.848;2023-12-22T14:11:17;7.70;;;2.60;;
62435;SDS011;48480;50.252;18.848;2023-12-22T14:14:01;4.80;;;2.20;;
62435;SDS011;48480;50.252;18.848;2023-12-22T14:16:45;4.40;;;2.40;;
62435;SDS011;48480;50.252;18.848;2023-12-22T14:19:30;9.70;;;3.90;;
62435;SDS011;48480;50.252;18.848;2023-12-22T14:22:13;4.50;;;1.50;;
62435;SDS011;48480;50.252;18.848;2023-12-22T14:24:57;3.90;;;1.30;;
62435;SDS011;48480;50.252;18.848;2023-12-22T14:27:41;4.90;;;1.30;;
62435;SDS011;48480;50.252;18.848;2023-12-22T14:30:26;6.90;;;2.40;;
62435;SDS011;48480;50.252;18.848;2023-12-22T14:33:10;4.00;;;1.60;;
62435;SDS011;48480;50.252;18.848;2023-12-22T14:35:54;2.70;;;1.10;;
62435;SDS011;48480;50.252;18.848;2023-12-22T14:38:38;6.20;;;2.60;;
62435;SDS011;48480;50.252;18.848;2023-12-22T14:41:22;4.00;;;1.90;;
62435;SDS011;48480;50.252;18.848;2023-12-22T14:44:06;5.20;;;1.90;;
62435;SDS011;48480;50.252;18.848;2023-12-22T14:46:50;5.80;;;2.00;;
62435;SDS011;48480;50.252;18.848;2023-12-22T14:49:34;4.90;;;1.80;;
62435;SDS011;48480;50.252;18.848;2023-12-22T14:52:18;8.60;;;2.60;;
62435;SDS011;48480;50.252;18.848;2023-12-22T14:55:03;4.20;;;2.30;;
62435;SDS011;48480;50.252;18.848;2023-12-22T14:57:48;5.40;;;2.20;;
62435;SDS011;48480;50.252;18.848;2023-12-22T15:00:32;6.80;;;2.40;;
62435;SDS011;48480;50.252;18.848;2023-12-22T15:03:16;5.70;;;2.20;;
62435;SDS011;48480;50.252;18.848;2023-12-22T15:06:02;9.80;;;3.60;;
62435;SDS011;48480;50.252;18.848;2023-12-22T15:08:46;3.50;;;2.00;;
62435;SDS011;48480;50.252;18.848;2023-12-22T15:11:30;4.00;;;2.10;;
62435;SDS011;48480;50.252;18.848;2023-12-22T15:14:15;4.50;;;2.20;;
62435;SDS011;48480;50.252;18.848;2023-12-22T15:17:00;3.50;;;1.80;;
62435;SDS011;48480;50.252;18.848;2023-12-22T15:19:44;4.90;;;1.80;;
62435;SDS011;48480;50.252;18.848;2023-12-22T15:22:28;4.40;;;2.00;;
62435;SDS011;48480;50.252;18.848;2023-12-22T15:25:12;8.10;;;2.40;;
62435;SDS011;48480;50.252;18.848;2023-12-22T15:27:56;4.10;;;1.50;;
62435;SDS011;48480;50.252;18.848;2023-12-22T15:30:40;6.30;;;2.60;;
62435;SDS011;48480;50.252;18.848;2023-12-22T15:33:24;5.70;;;1.70;;
62435;SDS011;48480;50.252;18.848;2023-12-22T15:36:08;4.30;;;1.90;;
62435;SDS011;48480;50.252;18.848;2023-12-22T15:38:52;2.80;;;1.60;;
62435;SDS011;48480;50.252;18.848;2023-12-22T15:41:36;12.10;;;5.80;;
62435;SDS011;48480;50.252;18.848;2023-12-22T15:44:20;4.40;;;2.30;;
62435;SDS011;48480;50.252;18.848;2023-12-22T15:47:05;2.60;;;1.20;;
62435;SDS011;48480;50.252;18.848;2023-12-22T15:49:49;3.80;;;1.80;;
62435;SDS011;48480;50.252;18.848;2023-12-22T15:52:34;5.30;;;2.30;;
62435;SDS011;48480;50.252;18.848;2023-12-22T15:55:18;5.20;;;1.90;;
62435;SDS011;48480;50.252;18.848;2023-12-22T15:58:03;4.70;;;2.00;;
62435;SDS011;48480;50.252;18.848;2023-12-22T16:00:47;4.60;;;1.80;;
62435;SDS011;48480;50.252;18.848;2023-12-22T16:03:32;5.70;;;1.50;;
62435;SDS011;48480;50.252;18.848;2023-12-22T16:06:17;7.00;;;2.90;;
62435;SDS011;48480;50.252;18.848;2023-12-22T16:09:01;4.40;;;1.60;;
62435;SDS011;48480;50.252;18.848;2023-12-22T16:11:45;4.50;;;1.90;;
62435;SDS011;48480;50.252;18.848;2023-12-22T16:14:32;3.30;;;1.70;;
62435;SDS011;48480;50.252;18.848;2023-12-22T16:17:16;8.90;;;3.10;;
62435;SDS011;48480;50.252;18.848;2023-12-22T16:20:00;11.30;;;3.90;;
62435;SDS011;48480;50.252;18.848;2023-12-22T16:22:49;9.70;;;4.20;;
62435;SDS011;48480;50.252;18.848;2023-12-22T16:25:42;9.30;;;4.20;;
62435;SDS011;48480;50.252;18.848;2023-12-22T16:28:21;11.40;;;4.80;;
62435;SDS011;48480;50.252;18.848;2023-12-22T16:31:06;11.50;;;4.20;;
62435;SDS011;48480;50.252;18.848;2023-12-22T16:33:50;9.10;;;4.10;;
62435;SDS011;48480;50.252;18.848;2023-12-22T16:36:35;12.10;;;5.10;;